Flugplatz Kassel-Calden

Bericht für EDVK

vom 04.12. um 09:20 UTC

Wind 6 kt aus 140°

Sichtweite 10 km oder mehr

aufgebrochene Bewölkung in 900 ft

Temperatur 2.0°C

Taupunkt 0.0°C

Luftfeuchtigkeit 87%

Luftdruck 998 hPa

EDVK 040920Z 14006KT 9999 BKN009 02/00 Q0998

Prognose für EDVK

vom 04.12. um 08:00 UTC

Zwischen 09:00 UTC und 18:00 UTC

Wind 6 kt aus 150°

Sichtweite 10 km oder mehr

aufgebrochene Bewölkung in 1500 ft


Zwischen 09:00 UTC und 12:00 UTC zeitweise

aufgebrochene Bewölkung in 800 ft


Zwischen 15:00 UTC und 18:00 UTC zeitweise

Sichtweite 4000 m

Regen

aufgebrochene Bewölkung in 600 ft

TAF EDVK 040800Z 0409/0418 15006KT 9999 BKN015 TEMPO 0409/0412 BKN008 TEMPO 0415/0418 4000 RA BKN006
Impressum